sensor_id;sensor_type;location;lat;lon;timestamp;P1;durP1;ratioP1;P2;durP2;ratioP2
52210;SDS011;38179;52.756;6.906;2022-08-19T00:00:07;24.98;;;22.48;;
52210;SDS011;38179;52.756;6.906;2022-08-19T00:02:37;24.35;;;22.55;;
52210;SDS011;38179;52.756;6.906;2022-08-19T00:05:04;25.25;;;23.35;;
52210;SDS011;38179;52.756;6.906;2022-08-19T00:07:30;25.30;;;23.10;;
52210;SDS011;38179;52.756;6.906;2022-08-19T00:09:56;24.05;;;22.25;;
52210;SDS011;38179;52.756;6.906;2022-08-19T00:12:22;24.73;;;22.73;;
52210;SDS011;38179;52.756;6.906;2022-08-19T00:14:49;24.52;;;22.63;;
52210;SDS011;38179;52.756;6.906;2022-08-19T00:17:15;25.17;;;23.17;;
52210;SDS011;38179;52.756;6.906;2022-08-19T00:19:41;25.48;;;23.40;;
52210;SDS011;38179;52.756;6.906;2022-08-19T00:22:07;25.15;;;23.20;;
52210;SDS011;38179;52.756;6.906;2022-08-19T00:24:34;25.15;;;23.02;;
52210;SDS011;38179;52.756;6.906;2022-08-19T00:27:03;24.25;;;22.52;;
52210;SDS011;38179;52.756;6.906;2022-08-19T00:29:30;25.15;;;23.25;;
52210;SDS011;38179;52.756;6.906;2022-08-19T00:31:56;25.88;;;23.85;;
52210;SDS011;38179;52.756;6.906;2022-08-19T00:34:24;25.65;;;23.60;;
52210;SDS011;38179;52.756;6.906;2022-08-19T00:36:54;25.10;;;23.15;;
52210;SDS011;38179;52.756;6.906;2022-08-19T00:39:20;25.40;;;23.42;;
52210;SDS011;38179;52.756;6.906;2022-08-19T00:41:47;26.13;;;23.80;;
52210;SDS011;38179;52.756;6.906;2022-08-19T00:44:15;24.13;;;22.30;;
52210;SDS011;38179;52.756;6.906;2022-08-19T00:46:47;25.40;;;23.50;;
52210;SDS011;38179;52.756;6.906;2022-08-19T00:51:59;24.15;;;22.35;;
52210;SDS011;38179;52.756;6.906;2022-08-19T00:54:29;27.08;;;24.92;;
52210;SDS011;38179;52.756;6.906;2022-08-19T00:56:57;26.73;;;24.63;;
52210;SDS011;38179;52.756;6.906;2022-08-19T00:59:24;25.85;;;23.75;;
52210;SDS011;38179;52.756;6.906;2022-08-19T01:01:51;26.85;;;24.77;;
52210;SDS011;38179;52.756;6.906;2022-08-19T01:04:18;24.98;;;22.90;;
52210;SDS011;38179;52.756;6.906;2022-08-19T01:06:44;25.70;;;23.70;;
52210;SDS011;38179;52.756;6.906;2022-08-19T01:09:10;27.15;;;24.90;;
52210;SDS011;38179;52.756;6.906;2022-08-19T01:11:38;26.77;;;24.67;;
52210;SDS011;38179;52.756;6.906;2022-08-19T01:14:07;27.13;;;24.92;;
52210;SDS011;38179;52.756;6.906;2022-08-19T01:16:34;28.92;;;26.63;;
52210;SDS011;38179;52.756;6.906;2022-08-19T01:19:02;26.52;;;24.40;;
52210;SDS011;38179;52.756;6.906;2022-08-19T01:21:40;27.42;;;25.23;;
52210;SDS011;38179;52.756;6.906;2022-08-19T01:24:11;26.30;;;24.08;;
52210;SDS011;38179;52.756;6.906;2022-08-19T01:26:38;28.05;;;25.85;;
52210;SDS011;38179;52.756;6.906;2022-08-19T01:29:07;27.50;;;25.40;;
52210;SDS011;38179;52.756;6.906;2022-08-19T01:31:33;27.92;;;25.63;;
52210;SDS011;38179;52.756;6.906;2022-08-19T01:34:00;26.15;;;24.17;;
52210;SDS011;38179;52.756;6.906;2022-08-19T01:39:03;27.25;;;25.15;;
52210;SDS011;38179;52.756;6.906;2022-08-19T01:41:32;28.83;;;26.52;;
52210;SDS011;38179;52.756;6.906;2022-08-19T01:43:59;27.23;;;25.00;;
52210;SDS011;38179;52.756;6.906;2022-08-19T01:46:29;26.70;;;24.55;;
52210;SDS011;38179;52.756;6.906;2022-08-19T01:48:56;27.77;;;25.48;;
52210;SDS011;38179;52.756;6.906;2022-08-19T01:51:22;27.65;;;25.50;;
52210;SDS011;38179;52.756;6.906;2022-08-19T01:53:48;28.08;;;25.67;;
52210;SDS011;38179;52.756;6.906;2022-08-19T01:56:16;26.42;;;24.42;;
52210;SDS011;38179;52.756;6.906;2022-08-19T01:58:48;26.35;;;24.33;;
52210;SDS011;38179;52.756;6.906;2022-08-19T02:01:19;26.35;;;24.25;;
52210;SDS011;38179;52.756;6.906;2022-08-19T02:03:45;26.85;;;24.55;;
52210;SDS011;38179;52.756;6.906;2022-08-19T02:06:11;26.13;;;23.95;;
52210;SDS011;38179;52.756;6.906;2022-08-19T02:08:38;27.83;;;25.38;;
52210;SDS011;38179;52.756;6.906;2022-08-19T02:11:05;26.30;;;23.98;;
52210;SDS011;38179;52.756;6.906;2022-08-19T02:13:32;25.63;;;23.55;;
52210;SDS011;38179;52.756;6.906;2022-08-19T02:15:59;26.15;;;24.15;;
52210;SDS011;38179;52.756;6.906;2022-08-19T02:18:25;27.10;;;24.90;;
52210;SDS011;38179;52.756;6.906;2022-08-19T02:20:52;25.13;;;23.13;;
52210;SDS011;38179;52.756;6.906;2022-08-19T02:23:18;26.63;;;24.52;;
52210;SDS011;38179;52.756;6.906;2022-08-19T02:25:45;25.73;;;23.65;;
52210;SDS011;38179;52.756;6.906;2022-08-19T02:28:13;26.83;;;24.55;;
52210;SDS011;38179;52.756;6.906;2022-08-19T02:30:40;28.27;;;25.98;;
52210;SDS011;38179;52.756;6.906;2022-08-19T02:33:06;26.92;;;24.75;;
52210;SDS011;38179;52.756;6.906;2022-08-19T02:35:33;26.70;;;24.42;;
52210;SDS011;38179;52.756;6.906;2022-08-19T02:37:59;25.55;;;23.35;;
52210;SDS011;38179;52.756;6.906;2022-08-19T02:40:50;27.40;;;25.20;;
52210;SDS011;38179;52.756;6.906;2022-08-19T02:43:18;28.33;;;25.90;;
52210;SDS011;38179;52.756;6.906;2022-08-19T02:45:48;27.58;;;25.38;;
52210;SDS011;38179;52.756;6.906;2022-08-19T02:48:15;28.73;;;26.08;;
52210;SDS011;38179;52.756;6.906;2022-08-19T02:50:44;27.85;;;25.55;;
52210;SDS011;38179;52.756;6.906;2022-08-19T02:53:10;26.98;;;24.83;;
52210;SDS011;38179;52.756;6.906;2022-08-19T02:55:42;28.85;;;26.38;;
52210;SDS011;38179;52.756;6.906;2022-08-19T02:58:14;27.77;;;25.58;;
52210;SDS011;38179;52.756;6.906;2022-08-19T03:00:42;28.55;;;26.15;;
52210;SDS011;38179;52.756;6.906;2022-08-19T03:03:10;27.25;;;25.15;;
52210;SDS011;38179;52.756;6.906;2022-08-19T03:05:36;28.02;;;25.60;;
52210;SDS011;38179;52.756;6.906;2022-08-19T03:08:03;27.55;;;25.15;;
52210;SDS011;38179;52.756;6.906;2022-08-19T03:10:31;29.48;;;26.77;;
52210;SDS011;38179;52.756;6.906;2022-08-19T03:12:57;26.58;;;24.45;;
52210;SDS011;38179;52.756;6.906;2022-08-19T03:15:24;26.55;;;24.50;;
52210;SDS011;38179;52.756;6.906;2022-08-19T03:17:50;27.90;;;25.70;;
52210;SDS011;38179;52.756;6.906;2022-08-19T03:20:16;25.80;;;23.80;;
52210;SDS011;38179;52.756;6.906;2022-08-19T03:22:42;25.17;;;23.23;;
52210;SDS011;38179;52.756;6.906;2022-08-19T03:25:08;23.60;;;21.73;;
52210;SDS011;38179;52.756;6.906;2022-08-19T03:27:36;24.75;;;22.85;;
52210;SDS011;38179;52.756;6.906;2022-08-19T03:30:02;29.85;;;23.98;;
52210;SDS011;38179;52.756;6.906;2022-08-19T03:32:29;25.92;;;23.15;;
52210;SDS011;38179;52.756;6.906;2022-08-19T03:34:55;23.00;;;21.30;;
52210;SDS011;38179;52.756;6.906;2022-08-19T03:37:22;24.35;;;22.42;;
52210;SDS011;38179;52.756;6.906;2022-08-19T03:39:48;23.08;;;21.27;;
52210;SDS011;38179;52.756;6.906;2022-08-19T03:42:14;24.60;;;22.60;;
52210;SDS011;38179;52.756;6.906;2022-08-19T03:44:42;25.05;;;22.98;;
52210;SDS011;38179;52.756;6.906;2022-08-19T03:47:09;24.27;;;22.38;;
52210;SDS011;38179;52.756;6.906;2022-08-19T03:49:40;26.13;;;24.00;;
52210;SDS011;38179;52.756;6.906;2022-08-19T03:52:06;22.95;;;21.25;;
52210;SDS011;38179;52.756;6.906;2022-08-19T03:54:33;21.75;;;20.15;;
52210;SDS011;38179;52.756;6.906;2022-08-19T03:57:00;22.08;;;20.38;;
52210;SDS011;38179;52.756;6.906;2022-08-19T03:59:28;22.23;;;20.60;;
52210;SDS011;38179;52.756;6.906;2022-08-19T04:01:59;24.92;;;22.85;;
52210;SDS011;38179;52.756;6.906;2022-08-19T04:04:27;23.25;;;21.55;;
52210;SDS011;38179;52.756;6.906;2022-08-19T04:06:54;23.75;;;21.75;;
52210;SDS011;38179;52.756;6.906;2022-08-19T04:09:21;24.15;;;22.33;;
52210;SDS011;38179;52.756;6.906;2022-08-19T04:11:48;24.35;;;22.45;;
52210;SDS011;38179;52.756;6.906;2022-08-19T04:14:19;24.77;;;22.88;;
52210;SDS011;38179;52.756;6.906;2022-08-19T04:16:48;26.05;;;24.05;;
52210;SDS011;38179;52.756;6.906;2022-08-19T04:19:14;23.38;;;21.48;;
52210;SDS011;38179;52.756;6.906;2022-08-19T04:21:42;24.63;;;22.67;;
52210;SDS011;38179;52.756;6.906;2022-08-19T04:26:37;24.13;;;22.13;;
52210;SDS011;38179;52.756;6.906;2022-08-19T04:29:08;24.05;;;22.15;;
52210;SDS011;38179;52.756;6.906;2022-08-19T04:31:43;26.92;;;24.70;;
52210;SDS011;38179;52.756;6.906;2022-08-19T04:34:12;28.23;;;25.73;;
52210;SDS011;38179;52.756;6.906;2022-08-19T04:36:41;28.42;;;25.80;;
52210;SDS011;38179;52.756;6.906;2022-08-19T04:39:11;25.73;;;23.52;;
52210;SDS011;38179;52.756;6.906;2022-08-19T04:41:42;27.05;;;24.83;;
52210;SDS011;38179;52.756;6.906;2022-08-19T04:44:27;25.58;;;23.48;;
52210;SDS011;38179;52.756;6.906;2022-08-19T04:46:56;27.20;;;24.75;;
52210;SDS011;38179;52.756;6.906;2022-08-19T04:49:22;25.90;;;23.77;;
52210;SDS011;38179;52.756;6.906;2022-08-19T04:51:49;26.00;;;23.92;;
52210;SDS011;38179;52.756;6.906;2022-08-19T04:54:18;25.10;;;22.90;;
52210;SDS011;38179;52.756;6.906;2022-08-19T04:56:51;26.63;;;24.40;;
52210;SDS011;38179;52.756;6.906;2022-08-19T04:59:18;27.48;;;25.08;;
52210;SDS011;38179;52.756;6.906;2022-08-19T05:01:46;28.35;;;25.73;;
52210;SDS011;38179;52.756;6.906;2022-08-19T05:04:17;30.63;;;27.90;;
52210;SDS011;38179;52.756;6.906;2022-08-19T05:06:48;28.25;;;25.85;;
52210;SDS011;38179;52.756;6.906;2022-08-19T05:09:16;29.65;;;27.13;;
52210;SDS011;38179;52.756;6.906;2022-08-19T05:11:42;28.70;;;26.17;;
52210;SDS011;38179;52.756;6.906;2022-08-19T05:14:09;29.83;;;27.10;;
52210;SDS011;38179;52.756;6.906;2022-08-19T05:16:38;28.20;;;25.80;;
52210;SDS011;38179;52.756;6.906;2022-08-19T05:19:05;30.45;;;27.65;;
52210;SDS011;38179;52.756;6.906;2022-08-19T05:21:50;31.17;;;28.35;;
52210;SDS011;38179;52.756;6.906;2022-08-19T05:24:35;31.88;;;28.55;;
52210;SDS011;38179;52.756;6.906;2022-08-19T05:27:02;32.47;;;29.55;;
52210;SDS011;38179;52.756;6.906;2022-08-19T05:29:30;32.60;;;29.58;;
52210;SDS011;38179;52.756;6.906;2022-08-19T05:32:01;29.92;;;27.33;;
52210;SDS011;38179;52.756;6.906;2022-08-19T05:34:34;30.02;;;27.33;;
52210;SDS011;38179;52.756;6.906;2022-08-19T05:37:03;31.33;;;28.52;;
52210;SDS011;38179;52.756;6.906;2022-08-19T05:39:31;30.27;;;27.55;;
52210;SDS011;38179;52.756;6.906;2022-08-19T05:42:03;29.73;;;27.23;;
52210;SDS011;38179;52.756;6.906;2022-08-19T05:44:33;26.60;;;24.35;;
52210;SDS011;38179;52.756;6.906;2022-08-19T05:47:02;32.10;;;29.02;;
52210;SDS011;38179;52.756;6.906;2022-08-19T05:49:31;33.45;;;30.38;;
52210;SDS011;38179;52.756;6.906;2022-08-19T05:51:58;31.90;;;29.10;;
52210;SDS011;38179;52.756;6.906;2022-08-19T05:54:26;33.58;;;30.40;;
52210;SDS011;38179;52.756;6.906;2022-08-19T05:56:52;32.97;;;30.02;;
52210;SDS011;38179;52.756;6.906;2022-08-19T05:59:21;32.95;;;29.95;;
52210;SDS011;38179;52.756;6.906;2022-08-19T06:01:51;33.15;;;30.23;;
52210;SDS011;38179;52.756;6.906;2022-08-19T06:04:19;30.55;;;27.73;;
52210;SDS011;38179;52.756;6.906;2022-08-19T06:06:47;32.67;;;29.50;;
52210;SDS011;38179;52.756;6.906;2022-08-19T06:09:17;32.45;;;29.15;;
52210;SDS011;38179;52.756;6.906;2022-08-19T06:11:51;34.33;;;30.73;;
52210;SDS011;38179;52.756;6.906;2022-08-19T06:14:21;33.88;;;30.67;;
52210;SDS011;38179;52.756;6.906;2022-08-19T06:16:49;33.08;;;30.13;;
52210;SDS011;38179;52.756;6.906;2022-08-19T06:19:20;33.10;;;29.75;;
52210;SDS011;38179;52.756;6.906;2022-08-19T06:21:50;32.58;;;29.52;;
52210;SDS011;38179;52.756;6.906;2022-08-19T06:24:19;33.50;;;30.50;;
52210;SDS011;38179;52.756;6.906;2022-08-19T06:26:49;32.50;;;29.45;;
52210;SDS011;38179;52.756;6.906;2022-08-19T06:31:48;35.08;;;31.35;;
52210;SDS011;38179;52.756;6.906;2022-08-19T06:34:18;34.20;;;30.73;;
52210;SDS011;38179;52.756;6.906;2022-08-19T06:36:46;34.00;;;30.80;;
52210;SDS011;38179;52.756;6.906;2022-08-19T06:39:25;34.17;;;31.08;;
52210;SDS011;38179;52.756;6.906;2022-08-19T06:41:55;33.90;;;30.75;;
52210;SDS011;38179;52.756;6.906;2022-08-19T06:46:49;36.17;;;32.55;;
52210;SDS011;38179;52.756;6.906;2022-08-19T06:49:16;34.05;;;30.55;;
52210;SDS011;38179;52.756;6.906;2022-08-19T06:51:44;33.25;;;30.15;;
52210;SDS011;38179;52.756;6.906;2022-08-19T06:54:13;33.45;;;30.45;;
52210;SDS011;38179;52.756;6.906;2022-08-19T06:56:39;34.03;;;30.67;;
52210;SDS011;38179;52.756;6.906;2022-08-19T06:59:09;29.42;;;26.83;;
52210;SDS011;38179;52.756;6.906;2022-08-19T07:01:41;34.55;;;31.00;;
52210;SDS011;38179;52.756;6.906;2022-08-19T07:04:10;33.30;;;29.73;;
52210;SDS011;38179;52.756;6.906;2022-08-19T07:06:37;34.80;;;30.23;;
52210;SDS011;38179;52.756;6.906;2022-08-19T07:09:07;35.17;;;31.65;;
52210;SDS011;38179;52.756;6.906;2022-08-19T07:11:36;33.20;;;29.85;;
52210;SDS011;38179;52.756;6.906;2022-08-19T07:14:02;33.72;;;30.17;;
52210;SDS011;38179;52.756;6.906;2022-08-19T07:16:29;33.22;;;29.90;;
52210;SDS011;38179;52.756;6.906;2022-08-19T07:18:55;32.97;;;29.70;;
52210;SDS011;38179;52.756;6.906;2022-08-19T07:21:23;32.47;;;29.27;;
52210;SDS011;38179;52.756;6.906;2022-08-19T07:23:56;33.67;;;30.65;;
52210;SDS011;38179;52.756;6.906;2022-08-19T07:26:27;34.17;;;30.73;;
52210;SDS011;38179;52.756;6.906;2022-08-19T07:28:55;32.55;;;29.50;;
52210;SDS011;38179;52.756;6.906;2022-08-19T07:31:23;33.00;;;29.63;;
52210;SDS011;38179;52.756;6.906;2022-08-19T07:33:53;32.65;;;29.73;;
52210;SDS011;38179;52.756;6.906;2022-08-19T07:36:22;32.58;;;29.35;;
52210;SDS011;38179;52.756;6.906;2022-08-19T07:38:51;32.60;;;29.83;;
52210;SDS011;38179;52.756;6.906;2022-08-19T07:41:22;31.50;;;28.80;;
52210;SDS011;38179;52.756;6.906;2022-08-19T07:43:50;33.15;;;30.25;;
52210;SDS011;38179;52.756;6.906;2022-08-19T07:46:18;32.42;;;29.67;;
52210;SDS011;38179;52.756;6.906;2022-08-19T07:48:46;34.97;;;31.63;;
52210;SDS011;38179;52.756;6.906;2022-08-19T07:51:15;33.80;;;30.60;;
52210;SDS011;38179;52.756;6.906;2022-08-19T07:53:45;34.53;;;31.33;;
52210;SDS011;38179;52.756;6.906;2022-08-19T07:56:12;34.13;;;30.90;;
52210;SDS011;38179;52.756;6.906;2022-08-19T07:58:40;34.47;;;31.33;;
52210;SDS011;38179;52.756;6.906;2022-08-19T08:01:13;32.92;;;29.92;;
52210;SDS011;38179;52.756;6.906;2022-08-19T08:03:42;32.97;;;29.98;;
52210;SDS011;38179;52.756;6.906;2022-08-19T08:06:27;32.20;;;29.35;;
52210;SDS011;38179;52.756;6.906;2022-08-19T08:09:12;34.85;;;31.52;;
52210;SDS011;38179;52.756;6.906;2022-08-19T08:11:50;34.53;;;31.33;;
52210;SDS011;38179;52.756;6.906;2022-08-19T08:14:19;35.15;;;32.05;;
52210;SDS011;38179;52.756;6.906;2022-08-19T08:16:52;36.10;;;32.80;;
52210;SDS011;38179;52.756;6.906;2022-08-19T08:19:19;34.15;;;30.75;;
52210;SDS011;38179;52.756;6.906;2022-08-19T08:21:47;34.17;;;30.98;;
